Time;durP1;ratioP1;P1;durP2;ratioP2;P2;SDS_P1;SDS_P2;PMS_P1;PMS_P2;Temp;Humidity;BMP_temperature;BMP_pressure;BME280_temperature;BME280_humidity;BME280_pressure;Samples;Min_cycle;Max_cycle;Signal;HPM_P1;HPM_P2
2022/01/15 00:01:34;;;;;;;41.20;18.10;;;;;;;5.10;96.86;103306.69;5056120;28;20029;-66
2022/01/15 00:03:59;;;;;;;37.65;16.50;;;;;;;5.28;96.42;103299.66;5056036;28;20025;-65
2022/01/15 00:06:24;;;;;;;42.42;17.73;;;;;;;5.42;95.84;103312.47;5056569;28;20048;-66
2022/01/15 00:08:50;;;;;;;32.65;16.70;;;;;;;5.42;96.23;103306.53;5056019;28;20498;-66
2022/01/15 00:11:15;;;;;;;40.22;17.13;;;;;;;5.31;96.02;103303.78;5055870;28;20024;-66
2022/01/15 00:13:43;;;;;;;41.13;16.83;;;;;;;5.53;95.71;103296.47;5055889;28;20068;-65
2022/01/15 00:16:12;;;;;;;39.15;17.45;;;;;;;5.51;95.61;103300.03;5055837;28;20491;-65
2022/01/15 00:18:44;;;;;;;36.75;17.20;;;;;;;5.46;95.02;103291.78;5054786;28;20028;-66
2022/01/15 00:21:11;;;;;;;27.77;14.63;;;;;;;5.19;95.16;103287.38;5056095;28;20044;-66
2022/01/15 00:23:36;;;;;;;33.42;14.52;;;;;;;5.15;95.79;103291.00;5037607;28;20372;-67
2022/01/15 00:26:02;;;;;;;58.28;14.88;;;;;;;5.08;95.94;103290.56;5037362;28;20031;-66
2022/01/15 00:28:27;;;;;;;49.13;15.10;;;;;;;5.09;95.78;103278.56;5037509;28;20051;-65
2022/01/15 00:30:53;;;;;;;34.08;15.18;;;;;;;4.98;96.04;103274.91;5037737;28;20087;-66
2022/01/15 00:33:18;;;;;;;34.72;15.38;;;;;;;4.82;97.50;103274.13;5055554;28;20375;-66
2022/01/15 00:35:43;;;;;;;37.13;16.77;;;;;;;5.00;97.25;103279.09;5037629;28;20120;-68
2022/01/15 00:38:09;;;;;;;39.13;16.40;;;;;;;5.25;96.79;103281.88;5055621;28;20116;-67
2022/01/15 00:40:34;;;;;;;49.75;16.63;;;;;;;5.22;95.75;103278.69;5037479;28;20032;-66
2022/01/15 00:42:59;;;;;;;37.35;17.30;;;;;;;5.21;96.18;103272.72;5055840;28;20047;-65
2022/01/15 00:45:29;;;;;;;42.30;17.80;;;;;;;5.15;96.26;103257.69;5055290;28;20439;-65
2022/01/15 00:47:54;;;;;;;42.53;18.58;;;;;;;5.34;95.88;103273.63;5055156;28;20067;-66
2022/01/15 00:50:20;;;;;;;43.25;18.23;;;;;;;5.32;95.85;103275.50;5055401;28;20025;-66
2022/01/15 00:52:45;;;;;;;56.88;18.23;;;;;;;5.22;96.40;103269.25;5037068;28;20400;-66
2022/01/15 00:55:13;;;;;;;49.42;20.27;;;;;;;5.23;96.69;103264.94;5055095;28;20492;-65
2022/01/15 00:57:39;;;;;;;52.50;19.98;;;;;;;5.38;95.84;103264.88;5054982;28;20029;-66
2022/01/15 01:00:06;;;;;;;75.72;21.73;;;;;;;5.16;96.06;103261.91;5054932;28;20020;-66
2022/01/15 01:02:32;;;;;;;65.03;21.63;;;;;;;5.24;97.02;103259.72;5055240;28;20020;-65
2022/01/15 01:04:57;;;;;;;62.63;21.58;;;;;;;5.29;96.71;103256.88;5055152;28;20032;-66
2022/01/15 01:07:22;;;;;;;64.57;22.63;;;;;;;5.24;96.30;103254.59;5037294;28;20522;-68
2022/01/15 01:12:45;;;;;;;65.03;23.10;;;;;;;5.29;96.19;103250.00;5055377;28;20040;-66
2022/01/15 01:23:07;;;;;;;65.65;23.10;;;;;;;5.20;97.02;103246.25;5054605;28;20029;-65
2022/01/15 01:25:43;;;;;;;73.18;23.88;;;;;;;5.13;96.67;103229.59;5036973;28;20056;-66
2022/01/15 01:28:13;;;;;;;71.40;23.25;;;;;;;5.17;96.34;103240.50;5036877;28;20024;-66
2022/01/15 01:30:51;;;;;;;83.07;24.42;;;;;;;5.17;96.21;103231.06;5054669;28;20029;-65
2022/01/15 01:33:31;;;;;;;67.43;23.08;;;;;;;5.11;96.32;103231.41;5054436;28;20028;-65
2022/01/15 01:36:09;;;;;;;64.72;23.00;;;;;;;5.08;96.82;103241.03;5036561;28;20121;-66
2022/01/15 01:39:20;;;;;;;62.97;22.45;;;;;;;5.02;97.26;103231.16;5054834;28;20051;-67
2022/01/15 01:41:24;;;;;;;62.72;22.38;;;;;;;5.01;97.10;103226.94;5045881;28;20557;-65
2022/01/15 01:48:49;;;;;;;48.25;19.27;;;;;;;4.75;97.56;103227.56;5054409;28;20036;-66
2022/01/15 01:51:30;;;;;;;51.33;19.20;;;;;;;4.69;96.70;103229.63;5053910;28;20024;-66
2022/01/15 01:53:56;;;;;;;61.03;17.48;;;;;;;4.55;97.18;103222.75;5054490;28;20025;-66
2022/01/15 01:56:21;;;;;;;50.80;18.17;;;;;;;4.49;97.79;103228.22;5053959;28;20037;-67
2022/01/15 01:58:47;;;;;;;48.05;19.10;;;;;;;4.80;97.97;103229.00;5054432;28;20066;-68
2022/01/15 02:01:13;;;;;;;54.13;17.58;;;;;;;4.53;97.58;103233.06;5053874;28;20052;-67
2022/01/15 02:03:38;;;;;;;55.50;18.30;;;;;;;4.80;96.51;103226.44;5053802;28;20021;-65
2022/01/15 02:06:04;;;;;;;57.22;19.17;;;;;;;4.68;96.61;103225.41;5053817;28;20021;-67
2022/01/15 02:08:33;;;;;;;55.67;20.00;;;;;;;4.63;97.48;103219.72;5035934;28;20013;-65
2022/01/15 02:11:00;;;;;;;65.10;20.65;;;;;;;4.75;97.55;103219.88;5035861;28;20116;-65
2022/01/15 02:13:26;;;;;;;69.22;18.92;;;;;;;4.86;96.67;103218.41;5053674;28;20028;-67
2022/01/15 02:15:51;;;;;;;51.28;19.10;;;;;;;4.80;96.86;103222.13;5054087;28;20028;-65
2022/01/15 02:18:16;;;;;;;60.47;19.90;;;;;;;4.87;96.86;103220.88;5035660;28;20460;-65
2022/01/15 02:26:01;;;;;;;51.88;19.08;;;;;;;4.89;96.20;103208.81;5053814;28;20545;-65
2022/01/15 02:28:30;;;;;;;61.25;18.92;;;;;;;4.76;96.65;103207.88;5053460;28;20031;-66
2022/01/15 02:30:58;;;;;;;51.90;18.27;;;;;;;4.49;96.45;103198.31;5053401;28;20028;-66
2022/01/15 02:33:23;;;;;;;68.32;19.85;;;;;;;4.57;97.08;103202.97;5053450;28;20479;-65
2022/01/15 02:35:49;;;;;;;43.72;16.52;;;;;;;4.43;97.62;103196.09;5053399;28;20028;-65
2022/01/15 02:38:15;;;;;;;47.90;16.75;;;;;;;4.35;97.55;103174.41;5053210;28;20033;-66
2022/01/15 02:40:42;;;;;;;48.33;17.52;;;;;;;4.45;97.27;103191.69;5053425;28;20036;-65
2022/01/15 02:43:14;;;;;;;50.10;17.00;;;;;;;4.40;97.15;103185.19;5035431;28;20029;-66
2022/01/15 02:45:43;;;;;;;55.83;17.50;;;;;;;4.39;97.12;103184.38;5053290;28;20108;-65
2022/01/15 02:48:14;;;;;;;56.88;17.73;;;;;;;4.41;96.73;103159.53;5053268;28;20193;-66
2022/01/15 02:50:41;;;;;;;44.33;16.45;;;;;;;4.27;97.04;103156.94;5053539;28;20594;-66
2022/01/15 02:53:08;;;;;;;43.08;15.60;;;;;;;4.40;97.53;103163.00;5052988;28;20045;-65
2022/01/15 02:55:33;;;;;;;51.97;17.83;;;;;;;4.20;97.54;103163.28;5053778;28;20112;-65
2022/01/15 02:57:59;;;;;;;47.95;17.85;;;;;;;4.43;97.84;103167.09;5053095;28;20100;-66
2022/01/15 03:00:26;;;;;;;45.22;16.48;;;;;;;4.56;97.36;103152.69;5035093;28;20020;-66
2022/01/15 03:02:51;;;;;;;51.08;16.13;;;;;;;4.37;98.01;103157.22;5035335;28;20036;-66
2022/01/15 03:05:17;;;;;;;44.80;17.08;;;;;;;4.23;97.53;103150.31;5035238;28;20029;-66
2022/01/15 03:07:42;;;;;;;61.45;16.27;;;;;;;4.32;97.16;103147.25;5053401;28;20562;-66
2022/01/15 03:10:10;;;;;;;42.97;16.00;;;;;;;4.15;97.11;103142.28;5035160;28;20021;-66
2022/01/15 03:12:36;;;;;;;42.15;13.73;;;;;;;4.10;97.60;103139.13;5035146;28;20082;-65
2022/01/15 03:15:05;;;;;;;42.03;13.75;;;;;;;3.94;98.61;103121.25;5053086;28;20028;-67
2022/01/15 03:17:30;;;;;;;43.22;15.18;;;;;;;4.34;98.83;103132.59;5053181;28;20021;-65
2022/01/15 03:19:55;;;;;;;54.20;14.20;;;;;;;4.09;97.66;103132.38;5053202;28;20025;-66
2022/01/15 03:22:21;;;;;;;38.35;14.73;;;;;;;4.12;98.69;103139.88;5053138;28;20104;-65
2022/01/15 03:24:47;;;;;;;37.08;13.32;;;;;;;3.96;98.82;103137.34;5052999;28;20025;-66
2022/01/15 03:27:12;;;;;;;37.30;13.70;;;;;;;4.01;99.37;103131.06;5052935;28;20032;-66
2022/01/15 03:29:38;;;;;;;38.78;13.63;;;;;;;4.00;98.55;103124.31;5052957;28;20024;-65
2022/01/15 03:32:04;;;;;;;56.20;14.13;;;;;;;4.09;97.48;103124.72;5052913;28;20102;-66
2022/01/15 03:34:29;;;;;;;43.60;14.73;;;;;;;4.14;98.48;103128.63;5052866;28;20033;-66
2022/01/15 03:36:54;;;;;;;41.33;13.57;;;;;;;4.12;97.87;103127.09;5052805;28;20029;-66
2022/01/15 03:39:20;;;;;;;35.80;13.73;;;;;;;4.04;98.38;103104.50;5052838;28;20028;-66
2022/01/15 03:41:45;;;;;;;37.97;12.73;;;;;;;4.19;97.66;103102.78;5052804;28;20106;-66
2022/01/15 03:44:10;;;;;;;40.90;13.27;;;;;;;4.30;97.11;103103.81;5052956;28;20098;-66
2022/01/15 03:46:36;;;;;;;35.85;12.40;;;;;;;4.06;97.59;103105.22;5052699;28;20036;-66
2022/01/15 03:49:01;;;;;;;37.83;12.50;;;;;;;4.14;97.49;103095.34;5034903;28;20108;-66
2022/01/15 03:51:26;;;;;;;44.03;14.38;;;;;;;4.15;97.14;103112.38;5052502;28;20041;-66
2022/01/15 03:53:51;;;;;;;50.25;14.13;;;;;;;4.04;97.89;103107.88;5054936;28;20456;-66
2022/01/15 03:56:17;;;;;;;37.53;13.50;;;;;;;4.05;98.22;103086.47;5038338;28;20031;-66
2022/01/15 03:58:42;;;;;;;33.75;12.02;;;;;;;3.98;97.52;103097.97;5056153;28;20029;-66
2022/01/15 04:01:07;;;;;;;49.88;12.85;;;;;;;4.01;97.87;103100.38;5038323;28;20029;-66
2022/01/15 04:03:33;;;;;;;39.80;12.25;;;;;;;4.02;97.56;103103.75;5038319;28;20029;-66
2022/01/15 04:05:58;;;;;;;35.45;11.93;;;;;;;4.07;97.45;103094.88;5055970;28;20387;-67
2022/01/15 04:08:24;;;;;;;34.38;11.80;;;;;;;4.11;97.77;103099.84;5055997;28;20031;-67
2022/01/15 04:10:49;;;;;;;39.45;11.60;;;;;;;4.13;97.19;103087.78;5055961;28;20021;-66
2022/01/15 04:13:15;;;;;;;39.83;12.07;;;;;;;4.04;97.06;103092.50;5038040;28;20535;-66
2022/01/15 04:15:42;;;;;;;38.00;12.05;;;;;;;4.13;97.37;103085.22;5055906;28;20067;-66
2022/01/15 04:18:07;;;;;;;31.50;10.70;;;;;;;3.84;97.69;103085.97;5037812;28;20028;-66
2022/01/15 04:20:32;;;;;;;39.83;11.38;;;;;;;3.72;98.20;103078.16;5037919;28;20029;-66
2022/01/15 04:22:58;;;;;;;35.17;11.77;;;;;;;3.88;97.79;103086.59;5055743;28;20023;-66
2022/01/15 04:25:23;;;;;;;39.15;11.32;;;;;;;3.90;97.78;103081.41;5037767;28;20025;-67
2022/01/15 04:27:49;;;;;;;37.05;12.00;;;;;;;3.87;97.72;103074.72;5055876;28;20037;-66
2022/01/15 04:30:16;;;;;;;47.33;11.63;;;;;;;3.93;98.01;103076.94;5037743;28;20075;-66
2022/01/15 04:32:41;;;;;;;36.10;11.10;;;;;;;3.82;97.76;103076.72;5037654;28;20083;-66
2022/01/15 04:35:07;;;;;;;45.40;12.38;;;;;;;3.83;98.73;103092.00;5037677;28;20033;-66
2022/01/15 04:37:40;;;;;;;41.92;10.75;;;;;;;3.86;97.93;103078.22;5037892;28;20108;-67
2022/01/15 04:40:07;;;;;;;47.57;12.27;;;;;;;4.03;97.70;103080.63;5055944;28;20029;-66
2022/01/15 04:42:32;;;;;;;44.05;12.50;;;;;;;4.02;97.52;103070.47;5055259;28;20268;-66
2022/01/15 04:44:58;;;;;;;48.80;14.18;;;;;;;4.03;96.48;103078.09;5037461;28;20506;-66
2022/01/15 04:47:24;;;;;;;45.28;11.32;;;;;;;4.04;97.50;103079.72;5055314;28;20111;-66
2022/01/15 04:49:49;;;;;;;43.90;11.90;;;;;;;3.96;96.57;103076.75;5055212;28;20025;-66
2022/01/15 04:52:15;;;;;;;43.30;10.98;;;;;;;3.67;97.43;103075.03;5054957;28;20132;-66
2022/01/15 04:54:40;;;;;;;40.08;11.50;;;;;;;3.51;98.74;103062.25;5055148;28;20499;-66
2022/01/15 04:57:05;;;;;;;90.97;14.02;;;;;;;3.44;98.95;103060.97;5054950;28;20040;-66
2022/01/15 04:59:31;;;;;;;64.07;12.70;;;;;;;3.51;99.88;103063.09;5037184;28;20025;-66
2022/01/15 05:01:56;;;;;;;39.97;12.20;;;;;;;3.56;98.71;103065.38;5054945;28;20021;-66
2022/01/15 05:04:21;;;;;;;42.70;11.48;;;;;;;3.56;98.59;103055.97;5054373;28;20040;-66
2022/01/15 05:06:47;;;;;;;45.75;11.60;;;;;;;3.50;98.32;103050.41;5054808;28;20017;-66
2022/01/15 05:09:12;;;;;;;37.47;11.52;;;;;;;3.36;98.72;103046.84;5036920;28;20021;-66
2022/01/15 05:11:46;;;;;;;39.17;11.52;;;;;;;3.36;98.96;103056.25;5054763;28;20021;-66
2022/01/15 05:14:13;;;;;;;45.45;12.05;;;;;;;3.35;99.02;103044.41;5055314;28;20036;-66
2022/01/15 05:16:38;;;;;;;59.33;12.02;;;;;;;3.31;98.10;103042.91;5036884;28;20069;-66
2022/01/15 05:19:04;;;;;;;51.42;12.15;;;;;;;3.34;99.03;103029.97;5054688;28;20017;-66
2022/01/15 05:21:31;;;;;;;45.08;12.32;;;;;;;3.40;99.30;103024.53;5036854;28;20029;-66
2022/01/15 05:23:56;;;;;;;41.15;12.27;;;;;;;3.48;98.44;103030.03;5055076;28;20036;-66
2022/01/15 05:26:21;;;;;;;36.63;11.70;;;;;;;3.61;98.12;103023.31;5036679;28;20021;-66
2022/01/15 05:28:46;;;;;;;41.83;12.85;;;;;;;3.57;97.66;103031.25;5054719;28;20448;-69
2022/01/15 05:31:12;;;;;;;46.40;12.10;;;;;;;3.54;97.73;103018.63;5054207;28;20024;-66
2022/01/15 05:33:37;;;;;;;39.08;11.50;;;;;;;3.44;97.79;103022.63;5037227;28;20057;-66
2022/01/15 05:36:03;;;;;;;33.55;10.85;;;;;;;3.39;97.38;103020.31;5036504;28;20075;-66
2022/01/15 05:38:28;;;;;;;49.30;11.10;;;;;;;3.27;97.65;103021.00;5036823;28;20044;-66
2022/01/15 05:40:53;;;;;;;67.22;10.27;;;;;;;2.91;98.39;103024.63;5054307;28;20021;-66
2022/01/15 05:43:18;;;;;;;37.30;11.02;;;;;;;2.88;99.12;103009.47;5054304;28;20502;-66
2022/01/15 05:45:45;;;;;;;44.13;10.75;;;;;;;3.00;99.08;103013.09;5054263;28;20052;-64
2022/01/15 05:48:10;;;;;;;38.17;10.10;;;;;;;2.93;98.08;102998.13;5036298;28;20111;-65
2022/01/15 05:50:35;;;;;;;37.35;10.88;;;;;;;2.96;98.69;103004.75;5054409;28;20108;-65
2022/01/15 05:53:01;;;;;;;33.50;10.70;;;;;;;2.94;98.79;103002.31;5053844;28;20053;-65
2022/01/15 05:55:26;;;;;;;36.80;9.73;;;;;;;2.79;99.03;103005.69;5036120;28;20021;-65
2022/01/15 05:57:51;;;;;;;114.40;11.52;;;;;;;2.85;98.56;102997.69;5053880;28;20021;-65
2022/01/15 06:00:18;;;;;;;51.38;11.13;;;;;;;2.79;99.37;103000.59;5036078;28;20029;-65
2022/01/15 06:02:43;;;;;;;77.45;10.95;;;;;;;2.77;99.32;103011.78;5053791;28;20467;-65
2022/01/15 06:05:09;;;;;;;92.95;11.73;;;;;;;2.94;99.07;103004.84;5035947;28;20117;-66
2022/01/15 06:07:34;;;;;;;54.95;10.85;;;;;;;2.86;98.82;103001.06;5053782;28;20050;-65
2022/01/15 06:09:59;;;;;;;47.30;10.90;;;;;;;2.97;98.81;102998.75;5053812;28;20131;-65
2022/01/15 06:12:30;;;;;;;68.22;11.15;;;;;;;2.72;98.83;102997.50;5053748;28;20021;-65
2022/01/15 06:14:56;;;;;;;73.65;11.55;;;;;;;2.88;99.82;102989.06;5053264;28;20021;-65
2022/01/15 06:17:21;;;;;;;50.33;10.27;;;;;;;2.70;99.65;102986.56;5053476;28;20036;-65
2022/01/15 06:19:46;;;;;;;66.03;12.15;;;;;;;2.83;99.79;102980.81;5053533;28;20017;-65
2022/01/15 06:22:12;;;;;;;52.35;10.82;;;;;;;2.89;99.56;102975.38;5053492;28;20497;-66
2022/01/15 06:24:37;;;;;;;86.25;14.00;;;;;;;2.74;99.18;102973.63;5053535;28;20036;-65
2022/01/15 06:27:03;;;;;;;81.00;11.65;;;;;;;2.91;99.87;102973.56;5053575;28;20027;-65
2022/01/15 06:29:28;;;;;;;49.90;11.05;;;;;;;2.93;99.59;102971.72;5053436;28;20494;-65
2022/01/15 06:31:54;;;;;;;59.08;10.77;;;;;;;3.04;99.11;102961.75;5053504;28;20435;-67
2022/01/15 06:34:19;;;;;;;42.22;10.85;;;;;;;2.94;99.00;102953.78;5053465;28;20031;-65
2022/01/15 06:36:45;;;;;;;59.38;11.73;;;;;;;3.14;99.31;102956.97;5053365;28;20024;-66
2022/01/15 06:39:11;;;;;;;37.03;10.30;;;;;;;3.18;98.80;102955.88;5053248;28;20056;-65
2022/01/15 06:41:36;;;;;;;38.70;11.25;;;;;;;3.31;98.29;102961.13;5053820;28;20051;-65
2022/01/15 06:44:01;;;;;;;60.30;11.00;;;;;;;3.24;98.37;102952.16;5053576;28;20432;-65
2022/01/15 06:46:26;;;;;;;46.60;11.10;;;;;;;3.07;99.21;102961.56;5053580;28;20095;-65
2022/01/15 06:48:52;;;;;;;83.60;12.88;;;;;;;2.92;98.91;102955.56;5053227;28;20103;-65
2022/01/15 06:51:17;;;;;;;94.22;13.02;;;;;;;3.12;99.73;102961.34;5035188;28;20033;-66
2022/01/15 06:53:43;;;;;;;85.82;14.52;;;;;;;2.95;99.37;102949.47;5054140;28;20120;-66
2022/01/15 06:56:08;;;;;;;106.90;16.15;;;;;;;2.91;99.15;102946.28;5054324;28;20466;-65
2022/01/15 06:58:33;;;;;;;95.10;14.30;;;;;;;3.04;99.22;102945.59;5054212;28;20071;-66
2022/01/15 07:00:59;;;;;;;56.10;15.05;;;;;;;3.14;98.97;102952.69;5052976;28;20051;-65
2022/01/15 07:03:24;;;;;;;57.22;14.80;;;;;;;2.94;99.40;102943.56;5052957;28;20067;-65
2022/01/15 07:05:49;;;;;;;66.00;14.73;;;;;;;2.89;99.23;102940.41;5053092;28;20417;-66
2022/01/15 07:08:14;;;;;;;98.68;15.95;;;;;;;3.12;99.17;102941.72;5053367;28;20021;-65
2022/01/15 07:10:41;;;;;;;39.13;15.05;;;;;;;3.17;98.64;102946.59;5053587;28;20028;-64
2022/01/15 07:13:07;;;;;;;121.53;17.95;;;;;;;3.02;99.74;102944.84;5035115;28;20410;-65
2022/01/15 07:15:33;;;;;;;98.03;14.55;;;;;;;2.77;99.06;102940.28;5052989;28;20059;-66
2022/01/15 07:17:59;;;;;;;66.22;17.67;;;;;;;2.89;100.00;102945.53;5035080;28;20032;-65
2022/01/15 07:20:26;;;;;;;86.95;18.33;;;;;;;2.86;99.83;102940.59;5053665;28;20024;-65
2022/01/15 07:22:51;;;;;;;107.05;19.58;;;;;;;2.78;99.24;102944.47;5053531;28;20091;-66
2022/01/15 07:25:17;;;;;;;94.45;21.00;;;;;;;2.83;99.67;102937.38;5034464;28;20731;-66
2022/01/15 07:27:42;;;;;;;102.15;20.20;;;;;;;2.82;99.51;102926.34;5054111;28;20021;-66
2022/01/15 07:30:10;;;;;;;116.30;19.33;;;;;;;2.83;99.45;102919.50;5037851;28;20025;-66
2022/01/15 07:32:35;;;;;;;132.55;20.90;;;;;;;2.82;99.32;102930.63;5055799;28;20460;-66
2022/01/15 07:35:01;;;;;;;118.57;19.48;;;;;;;2.70;99.65;102934.66;5055646;28;20167;-66
2022/01/15 07:37:26;;;;;;;86.57;20.05;;;;;;;2.72;99.79;102931.13;5055698;28;20029;-66
2022/01/15 07:39:53;;;;;;;96.07;19.65;;;;;;;2.57;100.00;102916.63;5056706;28;20464;-67
2022/01/15 07:42:19;;;;;;;118.75;21.27;;;;;;;2.77;100.00;102937.72;5039684;28;20037;-65
2022/01/15 07:44:44;;;;;;;65.57;18.90;;;;;;;2.68;100.00;102929.66;5057188;28;20024;-65
2022/01/15 07:47:09;;;;;;;103.22;19.63;;;;;;;2.75;99.91;102937.78;5056874;28;20029;-65
2022/01/15 07:49:35;;;;;;;83.68;19.55;;;;;;;2.82;100.00;102934.03;5056870;28;20029;-66
2022/01/15 07:52:01;;;;;;;97.07;19.55;;;;;;;3.11;100.00;102939.25;5038306;28;20045;-66
2022/01/15 07:54:26;;;;;;;93.60;19.67;;;;;;;2.89;99.08;102940.41;5056355;28;20032;-65
2022/01/15 07:56:55;;;;;;;88.97;19.85;;;;;;;2.97;100.00;102942.56;5038348;28;20029;-66
2022/01/15 07:59:23;;;;;;;98.18;19.67;;;;;;;2.89;98.94;102927.66;5038391;28;20516;-67
2022/01/15 08:01:48;;;;;;;88.35;20.00;;;;;;;3.05;99.00;102930.19;5038993;28;20049;-66
2022/01/15 08:04:13;;;;;;;65.45;18.55;;;;;;;3.04;98.60;102941.31;5056266;28;20427;-66
2022/01/15 08:06:40;;;;;;;95.68;19.13;;;;;;;3.10;98.85;102938.41;5056276;28;20384;-66
2022/01/15 08:09:06;;;;;;;104.95;19.98;;;;;;;3.11;98.94;102940.09;5038505;28;20017;-66
2022/01/15 08:11:31;;;;;;;150.07;19.00;;;;;;;3.00;99.13;102933.91;5056645;28;20384;-66
2022/01/15 08:13:56;;;;;;;88.95;19.98;;;;;;;3.29;98.92;102942.50;5055913;28;20033;-66
2022/01/15 08:16:21;;;;;;;114.88;18.35;;;;;;;3.03;98.53;102942.22;5056059;28;20036;-68
2022/01/15 08:18:47;;;;;;;83.40;17.52;;;;;;;3.20;98.97;102938.75;5039281;28;20032;-67
2022/01/15 08:21:12;;;;;;;70.47;17.50;;;;;;;3.29;99.02;102943.34;5059896;28;20372;-67
2022/01/15 08:23:38;;;;;;;124.38;18.60;;;;;;;3.20;98.64;102922.59;5060668;28;20024;-67
2022/01/15 08:26:04;;;;;;;74.85;17.15;;;;;;;3.16;98.23;102927.88;5059330;28;20033;-68
2022/01/15 08:28:30;;;;;;;67.18;18.92;;;;;;;3.34;98.92;102945.66;5059333;28;20021;-67
2022/01/15 08:30:56;;;;;;;85.97;17.15;;;;;;;3.31;98.25;102933.84;5060629;28;20025;-68
2022/01/15 08:33:21;;;;;;;57.85;16.30;;;;;;;3.30;98.69;102942.41;5044111;28;20037;-67
2022/01/15 08:35:46;;;;;;;118.60;17.80;;;;;;;3.38;97.88;102936.88;5062369;28;20029;-68
2022/01/15 08:38:11;;;;;;;87.07;15.48;;;;;;;3.38;97.63;102939.44;5059293;28;20043;-68
2022/01/15 08:40:37;;;;;;;79.22;16.38;;;;;;;3.33;98.44;102947.34;5061408;28;20021;-67
2022/01/15 08:43:03;;;;;;;104.28;15.00;;;;;;;3.29;98.53;102942.50;5040419;28;20021;-66
2022/01/15 08:45:29;;;;;;;58.20;14.82;;;;;;;3.14;98.68;102949.31;5056786;28;20439;-66
2022/01/15 08:47:55;;;;;;;68.80;15.18;;;;;;;3.41;98.86;102941.00;5056697;28;20043;-68
2022/01/15 08:50:21;;;;;;;87.35;15.80;;;;;;;3.54;98.29;102932.53;5056627;28;20029;-67
2022/01/15 08:52:46;;;;;;;107.00;15.13;;;;;;;3.42;97.76;102938.34;5056724;28;20064;-67
2022/01/15 08:55:13;;;;;;;59.72;14.57;;;;;;;3.47;98.13;102932.97;5056573;28;20021;-66
2022/01/15 08:57:38;;;;;;;97.75;14.55;;;;;;;3.36;98.65;102928.47;5056071;28;20065;-67
2022/01/15 09:00:08;;;;;;;93.13;14.45;;;;;;;3.24;98.96;102921.50;5055747;28;20031;-67
2022/01/15 09:02:33;;;;;;;150.32;17.13;;;;;;;3.24;98.88;102924.06;5037697;28;20025;-67
2022/01/15 09:04:59;;;;;;;96.95;14.90;;;;;;;3.11;99.57;102914.53;5056373;28;20383;-67
2022/01/15 09:07:24;;;;;;;99.22;14.88;;;;;;;3.26;99.41;102919.69;5056696;28;20108;-67
2022/01/15 09:09:49;;;;;;;86.43;14.43;;;;;;;3.18;100.00;102922.66;5038618;28;20425;-67
2022/01/15 09:12:17;;;;;;;79.95;14.95;;;;;;;3.14;99.68;102911.81;5056846;28;20032;-68
2022/01/15 09:14:42;;;;;;;95.13;14.40;;;;;;;3.36;99.48;102918.25;5037916;28;20013;-65
2022/01/15 09:17:08;;;;;;;53.30;13.38;;;;;;;3.06;99.85;102921.63;5055976;28;20475;-65
2022/01/15 09:19:34;;;;;;;80.55;14.55;;;;;;;3.18;100.00;102920.09;5056581;28;20076;-65
2022/01/15 09:22:00;;;;;;;65.78;13.77;;;;;;;3.33;99.91;102910.75;5056489;28;20411;-65
2022/01/15 09:24:25;;;;;;;46.65;14.00;;;;;;;3.35;99.61;102906.38;5038426;28;20075;-65
2022/01/15 09:32:05;;;;;;;79.82;14.00;;;;;;;3.37;98.70;102909.69;5056480;28;20079;-65
2022/01/15 09:34:32;;;;;;;74.97;14.43;;;;;;;3.16;99.36;102904.03;5054219;28;20029;-65
2022/01/15 09:36:58;;;;;;;82.50;13.80;;;;;;;3.31;99.53;102900.63;5054406;28;20021;-65
2022/01/15 09:39:23;;;;;;;52.20;14.65;;;;;;;3.29;99.96;102897.34;5036529;28;20116;-66
2022/01/15 09:41:51;;;;;;;86.10;14.02;;;;;;;3.36;99.01;102892.69;5054345;28;20033;-66
2022/01/15 09:44:17;;;;;;;73.32;13.88;;;;;;;3.51;99.49;102896.09;5036393;28;20021;-66
2022/01/15 09:46:44;;;;;;;54.97;14.32;;;;;;;3.46;99.43;102898.94;5036369;28;20029;-65
2022/01/15 09:49:11;;;;;;;80.50;14.82;;;;;;;3.44;98.60;102894.81;5054641;28;20353;-66
2022/01/15 09:51:36;;;;;;;52.28;15.25;;;;;;;3.41;99.34;102890.69;5054343;28;20412;-66
2022/01/15 09:54:02;;;;;;;92.88;15.57;;;;;;;3.57;99.13;102888.09;5054178;28;20025;-67
2022/01/15 09:56:28;;;;;;;66.00;14.80;;;;;;;3.64;98.93;102896.22;5036212;28;20483;-67
2022/01/15 09:58:54;;;;;;;67.95;15.60;;;;;;;3.48;98.93;102902.22;5053864;28;20538;-67
2022/01/15 10:01:19;;;;;;;64.00;15.80;;;;;;;3.70;98.43;102896.66;5054448;28;20365;-66
2022/01/15 10:03:45;;;;;;;56.80;15.60;;;;;;;3.90;97.74;102892.13;5036961;28;20033;-65
2022/01/15 10:06:11;;;;;;;38.95;12.35;;;;;;;3.56;97.69;102901.75;5054039;28;20098;-67
2022/01/15 10:08:37;;;;;;;62.58;16.02;;;;;;;3.66;99.81;102896.97;5036085;28;20036;-66
2022/01/15 10:11:07;;;;;;;85.97;16.90;;;;;;;3.81;98.88;102903.72;5035956;28;20032;-66
2022/01/15 10:13:42;;;;;;;85.90;15.88;;;;;;;3.69;98.85;102892.47;5035912;28;20436;-65
2022/01/15 10:16:07;;;;;;;64.53;15.40;;;;;;;3.82;98.62;102888.25;5053891;28;20479;-66
2022/01/15 10:18:36;;;;;;;88.90;18.00;;;;;;;3.58;99.30;102882.88;5036690;28;20113;-66
2022/01/15 10:21:15;;;;;;;131.68;17.35;;;;;;;3.55;98.76;102880.50;5053890;28;20140;-66
2022/01/15 10:24:00;;;;;;;91.97;17.27;;;;;;;3.51;100.00;102883.31;5054205;28;20499;-66
2022/01/15 10:26:31;;;;;;;106.30;18.30;;;;;;;3.67;99.26;102873.03;5054321;28;20422;-67
2022/01/15 10:29:03;;;;;;;76.93;17.65;;;;;;;3.77;98.68;102876.66;5054707;28;20371;-65
2022/01/15 10:31:38;;;;;;;114.78;19.67;;;;;;;3.71;99.45;102888.09;5035184;28;20476;-66
2022/01/15 10:34:33;;;;;;;110.03;20.73;;;;;;;3.66;99.29;102887.53;5053090;28;20047;-66
2022/01/15 10:37:13;;;;;;;111.78;19.65;;;;;;;3.78;99.03;102874.03;5052699;28;20032;-66
2022/01/15 10:39:52;;;;;;;76.60;17.42;;;;;;;3.82;99.35;102875.47;5052475;28;20434;-67
2022/01/15 10:42:22;;;;;;;66.65;19.00;;;;;;;3.84;98.66;102871.09;5052142;28;20021;-66
2022/01/15 10:44:47;;;;;;;64.95;17.55;;;;;;;3.99;98.12;102869.34;5053030;28;20368;-65
2022/01/15 10:47:16;;;;;;;56.25;17.92;;;;;;;4.05;97.37;102863.88;5035272;28;20033;-66
2022/01/15 10:49:42;;;;;;;46.88;16.63;;;;;;;3.95;97.22;102873.03;5053788;28;20124;-66
2022/01/15 10:52:11;;;;;;;50.50;17.95;;;;;;;4.03;97.33;102865.72;5053496;28;20049;-65
2022/01/15 10:55:01;;;;;;;78.22;17.63;;;;;;;3.54;99.06;102871.19;5035450;28;20049;-65
2022/01/15 10:57:30;;;;;;;66.07;16.23;;;;;;;3.52;98.55;102867.06;5035357;28;20120;-66
2022/01/15 11:00:04;;;;;;;53.70;16.48;;;;;;;3.69;98.97;102856.69;5053191;28;20091;-66
2022/01/15 11:02:29;;;;;;;52.95;16.23;;;;;;;3.54;98.71;102850.75;5036423;28;20466;-69
2022/01/15 11:04:54;;;;;;;67.93;17.20;;;;;;;3.61;98.58;102848.63;5038470;28;20120;-66
2022/01/15 11:07:20;;;;;;;47.38;15.93;;;;;;;3.66;98.92;102851.75;5056347;28;20029;-65
2022/01/15 11:09:47;;;;;;;53.85;16.83;;;;;;;3.67;98.92;102842.34;5057509;28;20079;-65
2022/01/15 11:12:13;;;;;;;61.08;16.77;;;;;;;3.65;98.07;102828.81;5057374;28;20051;-65
2022/01/15 11:14:39;;;;;;;63.78;17.80;;;;;;;3.92;99.20;102839.13;5057485;28;20033;-65
2022/01/15 11:17:06;;;;;;;60.53;17.73;;;;;;;3.63;98.38;102816.13;5041130;28;20483;-66
2022/01/15 11:19:33;;;;;;;60.28;16.17;;;;;;;3.79;99.01;102837.28;5038964;28;20361;-65
2022/01/15 11:22:00;;;;;;;61.80;16.77;;;;;;;3.92;98.60;102834.03;5039050;28;20023;-65
2022/01/15 11:24:25;;;;;;;63.85;16.00;;;;;;;3.70;99.25;102831.91;5039301;28;20025;-65
2022/01/15 11:26:59;;;;;;;66.45;17.00;;;;;;;3.96;98.81;102843.97;5021844;28;20123;-65
2022/01/15 11:29:25;;;;;;;66.75;16.92;;;;;;;3.95;98.37;102833.84;5039681;28;20017;-66
2022/01/15 11:31:55;;;;;;;76.57;17.05;;;;;;;3.71;98.57;102816.50;5056543;28;20075;-66
2022/01/15 11:34:21;;;;;;;51.53;16.15;;;;;;;3.71;99.26;102811.38;5055872;28;20078;-66
2022/01/15 11:36:47;;;;;;;73.82;16.23;;;;;;;3.90;99.02;102815.38;5039817;28;20020;-66
2022/01/15 11:39:35;;;;;;;69.10;16.85;;;;;;;3.87;98.73;102811.25;5038743;28;20094;-66
2022/01/15 11:42:04;;;;;;;53.70;16.13;;;;;;;3.77;98.68;102811.00;5046488;28;20060;-65